Time;durP1;ratioP1;P1;durP2;ratioP2;P2;SDS_P1;SDS_P2;PMS_P1;PMS_P2;Temp;Humidity;BMP_temperature;BMP_pressure;BME280_temperature;BME280_humidity;BME280_pressure;Samples;Min_cycle;Max_cycle;Signal;HPM_P1;HPM_P2
2022/10/23 00:02:22;;;;;;;17.47;16.37;;;9.50;99.90;;;;;;5058993;28;20206;-79
2022/10/23 00:04:51;;;;;;;17.40;16.00;;;9.50;99.90;;;;;;5059057;28;20184;-79
2022/10/23 00:07:17;;;;;;;13.53;12.13;;;9.50;99.90;;;;;;5058496;28;20595;-79
2022/10/23 00:09:44;;;;;;;17.47;16.03;;;9.50;99.90;;;;;;5059323;28;20185;-80
2022/10/23 00:12:09;;;;;;;17.07;15.53;;;9.40;99.90;;;;;;5059250;28;20210;-79
2022/10/23 00:14:35;;;;;;;16.40;15.37;;;9.30;99.90;;;;;;5060422;28;20227;-78
2022/10/23 00:17:01;;;;;;;16.47;15.07;;;9.30;99.90;;;;;;5060947;28;20666;-78
2022/10/23 00:19:27;;;;;;;10.83;10.03;;;9.30;99.90;;;;;;5059113;28;20641;-78
2022/10/23 00:21:53;;;;;;;9.57;8.77;;;9.30;99.90;;;;;;5059917;28;20212;-78
2022/10/23 00:24:19;;;;;;;8.60;7.90;;;9.30;99.90;;;;;;5061110;28;20182;-78
2022/10/23 00:26:44;;;;;;;9.10;8.67;;;9.20;99.90;;;;;;5060813;28;20234;-79
2022/10/23 00:29:11;;;;;;;9.03;7.57;;;9.30;99.90;;;;;;5059348;28;20182;-79
2022/10/23 00:31:37;;;;;;;8.97;8.37;;;9.20;99.90;;;;;;5059215;28;20271;-79
2022/10/23 00:34:06;;;;;;;15.43;14.30;;;9.20;99.90;;;;;;5059544;28;20186;-79
2022/10/23 00:36:33;;;;;;;12.73;11.83;;;9.20;99.90;;;;;;5060448;28;20251;-79
2022/10/23 00:38:58;;;;;;;10.70;9.90;;;9.20;99.90;;;;;;5058653;28;20565;-79
2022/10/23 00:41:28;;;;;;;8.97;8.23;;;9.20;99.90;;;;;;5076267;28;20304;-79
2022/10/23 00:43:54;;;;;;;7.27;6.87;;;9.20;99.90;;;;;;5058684;28;20182;-79
2022/10/23 00:46:20;;;;;;;8.40;7.90;;;9.10;99.90;;;;;;5058387;28;20188;-79
2022/10/23 00:48:45;;;;;;;10.00;8.40;;;9.10;99.90;;;;;;5058534;28;20189;-79
2022/10/23 00:51:11;;;;;;;9.27;8.40;;;9.10;99.90;;;;;;5058449;28;20244;-78
2022/10/23 00:53:37;;;;;;;17.30;15.70;;;9.00;99.90;;;;;;5076205;28;20184;-78
2022/10/23 00:56:04;;;;;;;13.77;12.47;;;8.90;99.90;;;;;;5059910;28;20643;-79
2022/10/23 00:58:29;;;;;;;8.10;7.63;;;8.90;99.90;;;;;;5077245;28;20216;-79
2022/10/23 01:00:56;;;;;;;11.47;7.10;;;8.90;99.90;;;;;;5059010;28;20200;-79
2022/10/23 01:03:24;;;;;;;8.77;8.27;;;8.90;99.90;;;;;;5059691;28;20186;-79
2022/10/23 01:06:02;;;;;;;11.70;11.00;;;8.90;99.90;;;;;;5076558;28;20268;-79
2022/10/23 01:08:39;;;;;;;8.27;7.67;;;8.80;99.90;;;;;;5059704;28;20182;-78
2022/10/23 01:11:08;;;;;;;7.87;7.27;;;8.80;99.90;;;;;;5079658;28;20209;-78
2022/10/23 01:13:40;;;;;;;8.57;8.07;;;8.80;99.90;;;;;;5079008;28;20174;-79
2022/10/23 01:16:14;;;;;;;7.43;7.03;;;8.80;99.90;;;;;;5076391;28;20174;-79
2022/10/23 01:19:13;;;;;;;8.03;7.53;;;8.80;99.90;;;;;;5076678;28;20180;-78
2022/10/23 01:21:59;;;;;;;8.90;8.20;;;8.80;99.90;;;;;;5059974;28;20198;-79
2022/10/23 01:24:52;;;;;;;8.47;7.43;;;8.80;99.90;;;;;;5076584;28;20193;-79
2022/10/23 01:27:18;;;;;;;9.47;8.60;;;8.70;99.90;;;;;;5058071;28;20244;-79
2022/10/23 01:29:58;;;;;;;9.20;8.30;;;8.70;99.90;;;;;;5058298;28;20666;-79
2022/10/23 01:32:44;;;;;;;10.37;9.60;;;8.60;99.90;;;;;;5059714;28;20260;-78
2022/10/23 01:35:24;;;;;;;9.70;8.80;;;8.60;99.90;;;;;;5077307;28;20184;-79
2022/10/23 01:38:04;;;;;;;7.43;6.73;;;8.60;99.90;;;;;;5058339;28;20578;-78
2022/10/23 01:40:41;;;;;;;7.43;6.70;;;8.60;99.90;;;;;;5057604;28;20185;-79
2022/10/23 01:43:15;;;;;;;7.57;6.87;;;8.50;99.90;;;;;;5075927;28;20216;-79
2022/10/23 01:45:52;;;;;;;8.20;6.70;;;8.50;99.90;;;;;;5057566;28;20185;-79
2022/10/23 01:48:22;;;;;;;8.17;7.60;;;8.50;99.90;;;;;;5077048;28;20188;-80
2022/10/23 01:50:48;;;;;;;7.40;6.70;;;8.50;99.90;;;;;;5058412;28;20201;-79
2022/10/23 01:53:14;;;;;;;7.00;6.60;;;8.50;99.90;;;;;;5075885;28;20189;-79
2022/10/23 01:55:42;;;;;;;7.77;7.27;;;8.40;99.90;;;;;;5058401;28;20177;-79
2022/10/23 01:58:09;;;;;;;7.07;6.67;;;8.50;99.90;;;;;;5057758;28;20176;-79
2022/10/23 02:00:39;;;;;;;7.97;7.17;;;8.40;99.90;;;;;;5078547;28;20190;-78
2022/10/23 02:03:07;;;;;;;7.13;6.73;;;8.40;99.90;;;;;;5058682;28;20220;-77
2022/10/23 02:05:33;;;;;;;10.23;9.20;;;8.40;99.90;;;;;;5057893;28;20536;-79
2022/10/23 02:08:00;;;;;;;16.67;15.30;;;8.40;99.90;;;;;;5074472;28;20238;-79
2022/10/23 02:10:53;;;;;;;9.97;9.50;;;8.40;99.90;;;;;;5076134;28;20201;-79
2022/10/23 02:13:42;;;;;;;10.00;9.20;;;8.40;99.90;;;;;;5056926;28;20204;-79
2022/10/23 02:16:22;;;;;;;20.97;19.33;;;8.40;99.90;;;;;;5057243;28;20605;-79
2022/10/23 02:18:50;;;;;;;36.27;34.00;;;8.30;99.90;;;;;;5074794;28;20174;-79
2022/10/23 02:21:30;;;;;;;32.83;30.63;;;8.30;99.90;;;;;;5057783;28;20689;-78
2022/10/23 02:24:10;;;;;;;31.33;29.13;;;8.30;99.90;;;;;;5061037;28;20249;-78
2022/10/23 02:26:41;;;;;;;24.70;22.90;;;8.30;99.90;;;;;;5079014;28;20192;-79
2022/10/23 02:29:14;;;;;;;8.33;7.50;;;8.40;99.90;;;;;;5057877;28;20184;-79
2022/10/23 02:31:40;;;;;;;19.63;17.57;;;8.30;99.90;;;;;;5057752;28;20592;-79
2022/10/23 02:34:05;;;;;;;23.73;22.00;;;8.30;99.90;;;;;;5058529;28;20173;-77
2022/10/23 02:36:31;;;;;;;22.30;20.83;;;8.40;99.90;;;;;;5060748;28;20204;-78
2022/10/23 02:38:57;;;;;;;27.00;25.20;;;8.40;99.90;;;;;;5060658;28;20177;-78
2022/10/23 02:41:43;;;;;;;29.33;27.43;;;8.40;99.90;;;;;;5075483;28;20213;-79
2022/10/23 02:44:28;;;;;;;27.83;25.80;;;8.40;99.90;;;;;;5075249;28;20673;-79
2022/10/23 02:47:00;;;;;;;20.03;17.73;;;8.50;99.90;;;;;;5058212;28;20246;-77
2022/10/23 02:49:35;;;;;;;27.60;25.93;;;8.40;99.90;;;;;;5060185;28;20185;-79
2022/10/23 02:52:31;;;;;;;19.43;18.23;;;8.50;99.90;;;;;;5057452;28;20681;-79
2022/10/23 02:55:18;;;;;;;18.87;17.83;;;8.50;99.90;;;;;;5057302;28;20575;-79
2022/10/23 02:57:55;;;;;;;20.20;19.03;;;8.60;99.90;;;;;;5057032;28;20183;-79
2022/10/23 03:00:22;;;;;;;23.43;21.90;;;8.60;99.90;;;;;;5057270;28;20247;-78
2022/10/23 03:03:12;;;;;;;22.90;21.40;;;8.60;99.90;;;;;;5057923;28;20194;-78
2022/10/23 03:05:40;;;;;;;21.00;19.90;;;8.60;99.90;;;;;;5058589;28;20269;-79
2022/10/23 03:08:08;;;;;;;29.67;27.80;;;8.60;99.90;;;;;;5074730;28;20174;-79
2022/10/23 03:10:34;;;;;;;32.03;30.23;;;8.60;99.90;;;;;;5056317;28;20666;-77
2022/10/23 03:13:00;;;;;;;31.57;30.00;;;8.70;99.90;;;;;;5074698;28;20194;-79
2022/10/23 03:15:26;;;;;;;42.33;40.03;;;8.70;99.90;;;;;;5056199;28;20781;-79
2022/10/23 03:17:51;;;;;;;10.93;10.30;;;8.70;99.90;;;;;;5056110;28;20200;-79
2022/10/23 03:20:17;;;;;;;18.20;16.43;;;8.70;99.90;;;;;;5073680;28;20247;-77
2022/10/23 03:22:43;;;;;;;38.63;35.87;;;8.70;99.90;;;;;;5074669;28;20655;-78
2022/10/23 03:25:09;;;;;;;31.70;29.63;;;8.70;99.90;;;;;;5073305;28;20184;-79
2022/10/23 03:27:35;;;;;;;26.57;25.27;;;8.70;99.90;;;;;;5073455;28;20216;-80
2022/10/23 03:30:03;;;;;;;16.80;15.80;;;8.60;99.90;;;;;;5056437;28;20553;-79
2022/10/23 03:32:28;;;;;;;16.83;11.50;;;8.60;99.90;;;;;;5074483;28;20228;-80
2022/10/23 03:34:54;;;;;;;8.37;7.57;;;8.60;99.90;;;;;;5056620;28;20186;-79
2022/10/23 03:37:20;;;;;;;11.83;10.73;;;8.60;99.90;;;;;;5055738;28;20223;-81
2022/10/23 03:39:47;;;;;;;13.43;12.13;;;8.60;99.90;;;;;;5055580;28;20178;-81
2022/10/23 03:42:13;;;;;;;13.23;12.53;;;8.50;99.90;;;;;;5055229;28;20304;-81
2022/10/23 03:44:38;;;;;;;9.27;8.63;;;8.50;99.90;;;;;;5073403;28;20228;-80
2022/10/23 03:47:04;;;;;;;12.60;11.50;;;8.50;99.90;;;;;;5055242;28;20208;-79
2022/10/23 03:49:30;;;;;;;19.10;18.10;;;8.50;99.90;;;;;;5052081;28;20196;-78
2022/10/23 03:51:56;;;;;;;21.40;20.00;;;8.60;99.90;;;;;;5044922;28;20267;-78
2022/10/23 03:54:24;;;;;;;22.63;20.83;;;8.60;99.90;;;;;;5074775;28;20178;-79
2022/10/23 03:56:50;;;;;;;13.70;12.60;;;8.60;99.90;;;;;;5056091;28;20216;-80
2022/10/23 03:59:16;;;;;;;16.90;15.90;;;8.60;99.90;;;;;;5074711;28;20202;-79
2022/10/23 04:01:42;;;;;;;11.63;11.03;;;8.60;99.90;;;;;;5056062;28;20607;-78
2022/10/23 04:04:09;;;;;;;8.70;8.00;;;8.60;99.90;;;;;;5055978;28;20188;-80
2022/10/23 04:06:34;;;;;;;8.67;8.17;;;8.60;99.90;;;;;;5055542;28;20182;-78
2022/10/23 04:09:00;;;;;;;8.33;7.83;;;8.60;99.90;;;;;;5055083;28;20192;-79
2022/10/23 04:11:27;;;;;;;10.00;9.47;;;8.60;99.90;;;;;;5055495;28;20210;-79
2022/10/23 04:13:52;;;;;;;9.73;9.17;;;8.50;99.90;;;;;;5072876;28;20240;-78
2022/10/23 04:16:18;;;;;;;11.37;10.67;;;8.50;99.90;;;;;;5053791;28;20482;-78
2022/10/23 04:18:44;;;;;;;9.17;8.20;;;8.50;99.90;;;;;;5071929;28;20181;-79
2022/10/23 04:21:10;;;;;;;9.67;8.97;;;8.50;99.90;;;;;;5071131;28;20818;-78
2022/10/23 04:23:36;;;;;;;13.47;12.47;;;8.50;99.90;;;;;;5054732;28;20715;-79
2022/10/23 04:26:02;;;;;;;11.80;11.03;;;8.60;99.90;;;;;;5054321;28;20182;-78
2022/10/23 04:28:27;;;;;;;14.07;13.30;;;8.50;99.90;;;;;;5054555;28;20211;-79
2022/10/23 04:30:53;;;;;;;19.53;18.30;;;8.50;99.90;;;;;;5072672;28;20359;-78
2022/10/23 04:33:19;;;;;;;17.37;16.20;;;8.50;99.90;;;;;;5071508;28;20186;-78
2022/10/23 04:35:45;;;;;;;23.53;22.13;;;8.60;99.90;;;;;;5071965;28;20174;-77
2022/10/23 04:38:11;;;;;;;17.40;15.63;;;8.50;99.90;;;;;;5057572;28;20178;-79
2022/10/23 04:40:37;;;;;;;9.97;9.43;;;8.50;99.90;;;;;;5055407;28;20371;-78
2022/10/23 04:43:03;;;;;;;12.57;7.43;;;8.50;99.90;;;;;;5047417;28;20221;-78
2022/10/23 04:45:29;;;;;;;7.70;7.20;;;8.40;99.90;;;;;;5057982;28;20621;-78
2022/10/23 04:47:55;;;;;;;9.90;8.27;;;8.50;99.90;;;;;;5057150;28;20213;-78
2022/10/23 04:50:21;;;;;;;18.00;16.93;;;8.50;99.90;;;;;;5057231;28;20174;-78
2022/10/23 04:52:47;;;;;;;20.17;19.03;;;8.50;99.90;;;;;;5059508;28;20227;-78
2022/10/23 04:55:13;;;;;;;13.93;12.93;;;8.60;99.90;;;;;;5078251;28;20174;-77
2022/10/23 04:57:39;;;;;;;13.83;13.10;;;8.60;99.90;;;;;;5059598;28;20186;-79
2022/10/23 05:00:07;;;;;;;16.97;15.37;;;8.60;99.90;;;;;;5075860;28;20662;-77
2022/10/23 05:02:33;;;;;;;15.40;14.27;;;8.70;99.90;;;;;;5076051;28;20706;-78
2022/10/23 05:04:59;;;;;;;11.63;10.90;;;8.70;99.90;;;;;;5058482;28;20188;-77
2022/10/23 05:07:25;;;;;;;9.93;8.93;;;8.80;99.90;;;;;;5075480;28;20201;-77
2022/10/23 05:09:50;;;;;;;7.77;7.10;;;8.80;99.90;;;;;;5075947;28;20177;-78
2022/10/23 05:12:17;;;;;;;10.60;9.13;;;8.80;99.90;;;;;;5074656;28;20217;-78
2022/10/23 05:14:42;;;;;;;9.90;9.20;;;8.80;99.90;;;;;;5057247;28;20183;-78
2022/10/23 05:17:17;;;;;;;11.60;9.03;;;8.80;99.90;;;;;;5056937;28;20747;-78
2022/10/23 05:19:49;;;;;;;8.87;8.33;;;8.80;99.90;;;;;;5059241;28;20189;-78
2022/10/23 05:22:17;;;;;;;10.67;9.70;;;8.90;99.90;;;;;;5057260;28;20205;-78
2022/10/23 05:24:43;;;;;;;23.43;22.03;;;8.90;99.90;;;;;;5074400;28;20213;-78
2022/10/23 05:27:09;;;;;;;42.20;40.03;;;8.90;99.90;;;;;;5056614;28;20213;-79
2022/10/23 05:29:35;;;;;;;46.77;44.27;;;8.90;99.90;;;;;;5057603;28;20178;-80
2022/10/23 05:32:04;;;;;;;52.83;50.07;;;9.00;99.90;;;;;;5057140;28;20606;-79
2022/10/23 05:34:32;;;;;;;41.87;39.03;;;8.90;99.90;;;;;;5057391;28;20174;-79
2022/10/23 05:36:58;;;;;;;54.53;51.63;;;8.90;99.90;;;;;;5057399;28;20174;-78
2022/10/23 05:39:23;;;;;;;29.20;27.57;;;8.90;99.90;;;;;;5057502;28;20178;-78
2022/10/23 05:41:50;;;;;;;17.77;16.53;;;9.00;99.90;;;;;;5056788;28;20587;-78
2022/10/23 05:44:15;;;;;;;23.27;22.10;;;9.00;99.90;;;;;;5074239;28;20186;-78
2022/10/23 05:46:42;;;;;;;34.57;32.90;;;9.00;99.90;;;;;;5056736;28;20185;-78
2022/10/23 05:49:08;;;;;;;39.80;37.37;;;9.00;99.90;;;;;;5055420;28;20228;-78
2022/10/23 05:51:38;;;;;;;30.83;29.10;;;9.10;99.90;;;;;;5074482;28;20217;-78
2022/10/23 05:54:07;;;;;;;36.30;33.70;;;9.10;99.90;;;;;;5055577;28;20184;-75
2022/10/23 05:56:40;;;;;;;31.50;29.90;;;9.10;99.90;;;;;;5071913;28;20173;-75
2022/10/23 05:59:06;;;;;;;49.83;46.57;;;9.20;99.90;;;;;;5070981;28;20174;-75
2022/10/23 06:01:32;;;;;;;22.87;21.43;;;9.20;99.90;;;;;;5071821;28;20559;-75
2022/10/23 06:03:59;;;;;;;16.87;15.77;;;9.10;99.90;;;;;;5071713;28;20242;-75
2022/10/23 06:06:25;;;;;;;16.50;15.50;;;9.10;99.90;;;;;;5071515;28;20681;-74
2022/10/23 06:08:51;;;;;;;17.67;16.23;;;9.10;99.90;;;;;;5071624;28;20214;-75
2022/10/23 06:11:17;;;;;;;9.10;8.50;;;9.10;99.90;;;;;;5071553;28;20565;-74
2022/10/23 06:13:44;;;;;;;8.70;7.97;;;9.10;99.90;;;;;;5053731;28;20216;-74
2022/10/23 06:16:17;;;;;;;9.97;9.03;;;9.10;99.90;;;;;;5071789;28;20178;-74
2022/10/23 06:18:47;;;;;;;10.80;10.07;;;9.10;99.90;;;;;;5071477;28;20692;-74
2022/10/23 06:21:14;;;;;;;28.00;26.30;;;9.10;99.90;;;;;;5071814;28;20209;-75
2022/10/23 06:23:41;;;;;;;50.57;47.87;;;9.20;99.90;;;;;;5071595;28;20181;-75
2022/10/23 06:26:08;;;;;;;43.17;40.87;;;9.30;99.90;;;;;;5071428;28;20188;-75
2022/10/23 06:28:34;;;;;;;37.37;34.97;;;9.30;99.90;;;;;;5052486;28;20178;-74
2022/10/23 06:31:04;;;;;;;33.67;31.67;;;9.30;99.90;;;;;;5053368;28;20717;-75
2022/10/23 06:33:30;;;;;;;30.50;28.67;;;9.40;99.90;;;;;;5070816;28;20566;-75
2022/10/23 06:35:56;;;;;;;25.80;24.43;;;9.40;99.90;;;;;;5071069;28;20272;-75
2022/10/23 06:38:22;;;;;;;27.53;25.03;;;9.50;99.90;;;;;;5052882;28;20174;-75
2022/10/23 06:40:55;;;;;;;23.97;21.90;;;9.60;99.90;;;;;;5071112;28;20185;-75
2022/10/23 06:43:21;;;;;;;19.60;17.73;;;9.70;99.90;;;;;;5053247;28;20186;-75
2022/10/23 06:45:47;;;;;;;17.63;16.33;;;9.80;99.90;;;;;;5071377;28;20184;-74
2022/10/23 06:48:14;;;;;;;21.50;16.27;;;9.80;99.90;;;;;;5070151;28;20186;-75
2022/10/23 06:50:39;;;;;;;22.63;21.33;;;9.90;99.90;;;;;;5054535;28;20179;-75
2022/10/23 06:53:06;;;;;;;32.00;30.23;;;9.90;99.90;;;;;;5055145;28;20201;-74
2022/10/23 06:55:32;;;;;;;30.23;28.10;;;10.10;99.90;;;;;;5071084;28;20265;-75
2022/10/23 06:57:58;;;;;;;25.37;24.07;;;10.20;99.90;;;;;;5070489;28;20208;-75
2022/10/23 07:00:24;;;;;;;13.47;9.73;;;10.30;99.90;;;;;;5053101;28;20238;-75
2022/10/23 07:02:51;;;;;;;6.67;6.03;;;10.40;99.90;;;;;;5070878;28;20616;-74
2022/10/23 07:05:17;;;;;;;11.33;8.70;;;10.60;99.90;;;;;;5070562;28;20216;-74
2022/10/23 07:07:43;;;;;;;11.57;10.57;;;10.70;99.90;;;;;;5070445;28;20680;-74
2022/10/23 07:10:09;;;;;;;14.57;13.10;;;10.80;99.90;;;;;;5070564;28;20205;-74
2022/10/23 07:12:34;;;;;;;12.87;11.63;;;11.00;99.90;;;;;;5052699;28;20221;-68
2022/10/23 07:15:00;;;;;;;8.60;7.80;;;11.20;99.90;;;;;;5053051;28;20182;-67
2022/10/23 07:17:27;;;;;;;8.40;6.00;;;11.40;99.90;;;;;;5070407;28;20195;-74
2022/10/23 07:19:53;;;;;;;13.97;12.77;;;11.50;99.90;;;;;;5070551;28;20594;-74
2022/10/23 07:22:19;;;;;;;30.77;28.83;;;11.60;99.90;;;;;;5070001;28;20201;-72
2022/10/23 07:24:45;;;;;;;35.37;33.37;;;11.80;99.90;;;;;;5070550;28;20669;-74
2022/10/23 07:27:11;;;;;;;12.20;11.17;;;12.00;99.90;;;;;;5052263;28;20239;-73
2022/10/23 07:29:37;;;;;;;12.93;11.90;;;12.20;99.90;;;;;;5050071;28;20201;-74
2022/10/23 07:32:04;;;;;;;42.90;40.03;;;12.50;99.90;;;;;;5069963;28;20232;-73
2022/10/23 07:34:30;;;;;;;59.13;56.03;;;12.70;99.90;;;;;;5070411;28;20173;-73
2022/10/23 07:36:56;;;;;;;25.37;23.77;;;12.90;99.90;;;;;;5053310;28;20237;-75
2022/10/23 07:39:22;;;;;;;14.13;13.30;;;13.00;99.90;;;;;;5056015;28;20658;-74
2022/10/23 07:41:49;;;;;;;10.53;6.13;;;13.20;99.90;;;;;;5031927;28;20267;-75
2022/10/23 07:44:14;;;;;;;6.63;6.20;;;13.30;99.90;;;;;;5048328;28;20273;-74
2022/10/23 07:46:40;;;;;;;14.00;13.13;;;13.40;99.90;;;;;;5049925;28;20797;-74
2022/10/23 07:49:06;;;;;;;31.00;28.70;;;13.60;99.90;;;;;;5053534;28;20223;-74
2022/10/23 07:51:32;;;;;;;38.67;36.63;;;13.70;99.90;;;;;;5070509;28;20307;-74
2022/10/23 07:53:58;;;;;;;51.23;47.90;;;13.80;99.90;;;;;;5070293;28;20185;-73
2022/10/23 07:56:28;;;;;;;46.60;43.27;;;14.00;99.90;;;;;;5070601;28;20177;-74
2022/10/23 07:58:54;;;;;;;20.50;18.80;;;14.30;99.90;;;;;;5069996;28;20679;-74
2022/10/23 08:01:41;;;;;;;15.40;11.60;;;14.40;99.90;;;;;;5070067;28;20340;-73
2022/10/23 08:04:08;;;;;;;13.23;12.10;;;14.70;99.90;;;;;;5070155;28;20185;-74
2022/10/23 08:06:35;;;;;;;12.10;11.30;;;14.80;99.90;;;;;;5070404;28;20469;-73
2022/10/23 08:09:01;;;;;;;12.80;12.00;;;14.90;99.90;;;;;;5070091;28;20268;-74
2022/10/23 08:11:29;;;;;;;11.60;8.50;;;15.10;99.90;;;;;;5071162;28;20212;-74
2022/10/23 08:13:57;;;;;;;8.97;8.27;;;15.30;99.90;;;;;;5074201;28;20243;-74
2022/10/23 08:16:24;;;;;;;16.63;14.90;;;15.60;99.90;;;;;;5074159;28;20180;-74
2022/10/23 08:18:50;;;;;;;14.40;12.93;;;15.80;99.90;;;;;;5055767;28;20188;-75
2022/10/23 08:21:17;;;;;;;10.27;9.70;;;16.10;99.90;;;;;;5073929;28;20681;-75
2022/10/23 08:23:43;;;;;;;9.67;8.83;;;16.30;99.90;;;;;;5073913;28;20221;-75
2022/10/23 08:26:10;;;;;;;7.73;7.27;;;16.30;99.90;;;;;;5069799;28;20184;-75
2022/10/23 08:28:36;;;;;;;8.17;7.47;;;16.60;99.90;;;;;;5071620;28;20661;-75
2022/10/23 08:31:13;;;;;;;13.43;12.37;;;16.60;99.90;;;;;;5072694;28;20663;-75
2022/10/23 08:33:40;;;;;;;13.07;12.13;;;16.70;99.90;;;;;;5073221;28;20259;-75
2022/10/23 08:36:19;;;;;;;12.83;12.00;;;16.70;99.90;;;;;;5055828;28;20182;-74
2022/10/23 08:38:45;;;;;;;22.77;21.23;;;16.90;99.90;;;;;;5072758;28;20185;-76
2022/10/23 08:41:28;;;;;;;18.03;17.10;;;17.30;99.90;;;;;;5073601;28;20217;-74
2022/10/23 08:44:17;;;;;;;18.10;17.00;;;17.60;99.90;;;;;;5073670;28;20177;-74
2022/10/23 08:46:49;;;;;;;9.63;8.70;;;18.20;99.90;;;;;;5073052;28;20185;-68
2022/10/23 08:49:29;;;;;;;11.37;7.20;;;18.80;99.90;;;;;;5073595;28;20220;-68
2022/10/23 08:51:59;;;;;;;9.43;8.67;;;19.20;99.90;;;;;;5073303;28;20217;-71
2022/10/23 08:54:52;;;;;;;27.83;26.40;;;19.50;99.90;;;;;;5055612;28;20200;-71
2022/10/23 08:57:21;;;;;;;19.90;18.53;;;19.60;99.90;;;;;;5072965;28;20177;-71
2022/10/23 09:00:10;;;;;;;18.30;16.90;;;19.20;99.90;;;;;;5073089;28;20253;-72
2022/10/23 09:02:46;;;;;;;16.33;15.30;;;19.10;99.90;;;;;;5069612;28;20620;-70
2022/10/23 09:05:20;;;;;;;16.90;16.00;;;18.80;99.90;;;;;;5054890;28;20580;-73
2022/10/23 09:07:49;;;;;;;24.73;23.33;;;18.70;99.90;;;;;;5052552;28;20200;-78
2022/10/23 09:10:44;;;;;;;20.80;19.57;;;18.60;99.90;;;;;;5067265;28;20203;-80
2022/10/23 09:13:38;;;;;;;19.20;18.13;;;18.50;99.90;;;;;;5079451;28;20189;-78
2022/10/23 09:16:23;;;;;;;20.93;19.30;;;18.50;99.90;;;;;;5073183;28;20170;-79
2022/10/23 09:18:49;;;;;;;24.60;22.90;;;18.50;99.90;;;;;;5072953;28;20174;-78
2022/10/23 09:21:15;;;;;;;12.20;11.03;;;18.70;99.90;;;;;;5073650;28;20702;-80
2022/10/23 09:23:41;;;;;;;8.13;7.37;;;19.10;99.90;;;;;;5051095;28;20188;-80
2022/10/23 09:26:13;;;;;;;6.97;5.90;;;19.50;99.90;;;;;;5051101;28;20194;-74
2022/10/23 09:29:01;;;;;;;7.67;6.97;;;20.20;99.90;;;;;;5051310;28;20182;-75
2022/10/23 09:31:26;;;;;;;20.97;19.47;;;20.90;99.90;;;;;;5052156;28;20351;-69
2022/10/23 09:33:55;;;;;;;22.27;20.67;;;21.50;99.90;;;;;;5051986;28;20644;-70
2022/10/23 09:36:23;;;;;;;25.40;23.97;;;22.50;99.90;;;;;;5052412;28;20190;-69
2022/10/23 09:38:51;;;;;;;52.78;49.90;;;23.20;99.90;;;;;;5052051;28;20663;-69
2022/10/23 09:41:34;;;;;;;34.25;32.28;;;23.70;99.90;;;;;;5052040;28;20274;-69
2022/10/23 09:44:23;;;;;;;36.33;34.20;;;23.70;99.90;;;;;;5044255;28;20209;-69
2022/10/23 09:47:09;;;;;;;26.55;24.70;;;23.70;99.90;;;;;;5071993;28;20181;-74
2022/10/23 09:49:40;;;;;;;24.00;21.98;;;23.90;99.90;;;;;;5094456;22;20225;-77
2022/10/23 09:52:08;;;;;;;33.63;31.75;;;24.50;99.90;;;;;;5079816;28;20201;-75
2022/10/23 09:54:45;;;;;;;41.58;39.17;;;24.50;99.90;;;;;;5080110;28;20242;-78
2022/10/23 09:57:55;;;;;;;17.92;16.92;;;24.70;99.90;;;;;;5071210;28;20203;-79
2022/10/23 10:00:26;;;;;;;21.00;19.67;;;25.60;99.90;;;;;;5070949;28;20216;-78
2022/10/23 10:03:00;;;;;;;32.95;30.92;;;25.60;99.90;;;;;;5079897;28;20189;-78
2022/10/23 10:05:35;;;;;;;11.35;10.35;;;25.50;99.90;;;;;;5070400;28;20220;-72
2022/10/23 10:08:16;;;;;;;9.20;8.43;;;25.60;99.90;;;;;;5091087;28;20180;-74
2022/10/23 10:10:59;;;;;;;8.25;7.40;;;25.70;99.90;;;;;;5088313;28;20216;-72
2022/10/23 10:13:31;;;;;;;7.50;5.22;;;26.10;99.90;;;;;;5071898;28;20181;-72
2022/10/23 10:16:19;;;;;;;4.88;4.57;;;26.30;99.90;;;;;;5070584;28;20654;-72
2022/10/23 10:18:49;;;;;;;6.00;5.22;;;26.50;99.90;;;;;;5071562;28;20569;-72
2022/10/23 10:21:25;;;;;;;5.75;5.32;;;26.50;99.90;;;;;;5070608;28;20719;-73
2022/10/23 10:24:12;;;;;;;6.53;4.82;;;26.80;99.90;;;;;;5071648;28;20224;-72
2022/10/23 10:27:00;;;;;;;4.60;4.30;;;26.90;99.90;;;;;;5086966;28;20568;-73
2022/10/23 10:29:52;;;;;;;5.05;4.65;;;26.70;99.90;;;;;;5071362;28;20271;-72
2022/10/23 10:32:57;;;;;;;4.60;4.30;;;27.20;99.90;;;;;;5071307;28;20237;-73
2022/10/23 10:35:55;;;;;;;4.88;4.43;;;26.70;99.90;;;;;;5070840;28;20194;-72
2022/10/23 10:38:43;;;;;;;4.25;3.85;;;26.50;99.90;;;;;;5083808;28;20181;-75
2022/10/23 10:41:34;;;;;;;3.70;3.40;;;26.50;99.90;;;;;;5080999;28;20751;-76
2022/10/23 10:44:00;;;;;;;8.32;4.40;;;26.40;99.90;;;;;;5083568;28;20713;-76
2022/10/23 10:46:43;;;;;;;4.40;4.20;;;26.40;99.90;;;;;;5091588;28;20180;-74
2022/10/23 10:49:25;;;;;;;5.10;3.90;;;27.00;99.90;;;;;;5091555;28;20268;-75
2022/10/23 10:51:51;;;;;;;5.22;4.43;;;27.00;99.90;;;;;;5101959;28;20289;-76
2022/10/23 10:54:38;;;;;;;4.60;3.20;;;27.40;99.90;;;;;;5093014;28;20582;-76
2022/10/23 10:57:15;;;;;;;7.43;3.50;;;28.10;99.60;;;;;;5090852;28;20172;-76
2022/10/23 10:59:45;;;;;;;5.20;4.35;;;28.40;97.40;;;;;;5091455;28;20619;-76
2022/10/23 11:02:32;;;;;;;5.53;5.30;;;27.50;98.60;;;;;;5092274;28;20215;-76
2022/10/23 11:05:10;;;;;;;3.33;3.13;;;27.00;98.50;;;;;;5091525;28;20193;-77
2022/10/23 11:07:41;;;;;;;3.67;3.47;;;26.80;99.90;;;;;;5091063;28;20176;-76
2022/10/23 11:10:15;;;;;;;4.05;3.95;;;26.30;99.30;;;;;;5091477;28;20243;-76
2022/10/23 11:12:44;;;;;;;3.13;2.92;;;26.00;99.90;;;;;;5090417;28;20216;-76
2022/10/23 11:15:15;;;;;;;4.15;3.80;;;25.60;99.90;;;;;;5091112;28;20218;-77
2022/10/23 11:17:46;;;;;;;5.00;4.68;;;25.60;99.90;;;;;;5076035;28;20177;-75
2022/10/23 11:20:33;;;;;;;8.43;4.97;;;25.70;99.90;;;;;;5091108;28;20239;-76
2022/10/23 11:23:11;;;;;;;4.25;4.00;;;25.70;99.90;;;;;;5090927;28;20180;-75
2022/10/23 11:25:56;;;;;;;5.18;4.45;;;25.90;99.90;;;;;;5090486;28;20181;-75
2022/10/23 11:28:39;;;;;;;5.45;4.15;;;25.80;99.90;;;;;;5089978;28;20226;-75
2022/10/23 11:31:44;;;;;;;7.75;4.88;;;25.80;99.90;;;;;;5090845;28;20358;-75
2022/10/23 11:34:18;;;;;;;4.65;4.18;;;25.60;99.90;;;;;;5036509;28;20190;-75
2022/10/23 11:36:57;;;;;;;4.63;4.32;;;25.60;99.90;;;;;;5082816;28;20576;-75
2022/10/23 11:39:26;;;;;;;5.05;4.75;;;25.30;99.90;;;;;;5090517;28;20204;-75
2022/10/23 11:42:12;;;;;;;4.07;3.80;;;24.80;99.90;;;;;;5089638;28;20185;-75
2022/10/23 11:44:43;;;;;;;4.10;3.60;;;24.60;99.90;;;;;;5090996;28;20272;-76
2022/10/23 11:47:28;;;;;;;4.57;4.28;;;24.30;99.90;;;;;;5093399;28;20236;-75
2022/10/23 11:50:26;;;;;;;4.05;3.78;;;24.10;99.90;;;;;;5094639;28;20581;-75
2022/10/23 11:53:05;;;;;;;4.47;4.25;;;23.80;99.90;;;;;;5069538;28;20282;-77
2022/10/23 11:55:31;;;;;;;5.00;4.10;;;23.70;99.90;;;;;;5074669;28;20169;-76
2022/10/23 11:58:03;;;;;;;4.88;4.57;;;23.60;99.90;;;;;;5073976;28;20668;-75
2022/10/23 12:00:31;;;;;;;4.70;4.40;;;23.70;99.90;;;;;;5091927;28;20574;-76
2022/10/23 12:02:59;;;;;;;7.65;4.72;;;23.80;99.90;;;;;;5094193;28;20177;-75
2022/10/23 12:05:40;;;;;;;5.10;4.78;;;23.70;99.90;;;;;;5093006;28;20188;-75
2022/10/23 12:08:21;;;;;;;5.40;5.00;;;23.70;99.90;;;;;;5093765;28;20291;-75
2022/10/23 12:10:54;;;;;;;4.80;4.50;;;23.70;99.90;;;;;;5093863;28;20254;-75
2022/10/23 12:13:36;;;;;;;5.53;5.22;;;23.50;99.90;;;;;;5095701;28;20654;-76
2022/10/23 12:16:03;;;;;;;5.72;4.05;;;23.50;99.90;;;;;;5094109;28;20181;-75
2022/10/23 12:18:29;;;;;;;5.00;4.55;;;23.70;99.90;;;;;;5092151;28;20233;-74
2022/10/23 12:21:04;;;;;;;5.80;5.00;;;23.80;99.90;;;;;;5093987;28;20193;-75
2022/10/23 12:23:30;;;;;;;5.30;4.65;;;24.00;99.90;;;;;;5093920;28;20187;-75
2022/10/23 12:26:32;;;;;;;4.72;4.43;;;24.00;99.90;;;;;;5093764;28;20177;-75
2022/10/23 12:28:58;;;;;;;5.10;4.90;;;24.10;99.90;;;;;;5113692;28;20204;-75
2022/10/23 12:31:33;;;;;;;4.90;4.72;;;24.30;99.90;;;;;;5094895;28;20212;-75
2022/10/23 12:34:22;;;;;;;4.70;4.50;;;24.50;99.90;;;;;;5093960;28;20202;-75
2022/10/23 12:36:54;;;;;;;5.35;5.15;;;24.50;99.90;;;;;;5073764;28;20193;-75
2022/10/23 12:39:31;;;;;;;5.57;5.18;;;24.50;99.90;;;;;;5093825;28;20250;-75
2022/10/23 12:41:59;;;;;;;5.55;5.35;;;24.40;99.90;;;;;;5092568;28;20601;-75
2022/10/23 12:44:26;;;;;;;5.40;5.20;;;24.30;99.90;;;;;;5094039;28;20177;-76
2022/10/23 12:47:00;;;;;;;6.03;5.72;;;24.10;99.90;;;;;;5092477;28;20229;-76
2022/10/23 12:49:30;;;;;;;4.88;4.40;;;24.00;99.90;;;;;;5094783;28;20674;-76
2022/10/23 12:52:05;;;;;;;5.40;5.00;;;24.10;99.90;;;;;;5093843;28;20737;-76
2022/10/23 12:54:37;;;;;;;5.82;5.40;;;24.40;99.90;;;;;;5093642;28;20252;-75
2022/10/23 12:57:19;;;;;;;5.82;5.50;;;24.70;99.90;;;;;;5093014;28;20197;-75
2022/10/23 12:59:45;;;;;;;5.50;5.20;;;24.70;99.90;;;;;;5091797;28;20750;-75
2022/10/23 13:02:25;;;;;;;5.82;5.50;;;24.70;99.90;;;;;;5093152;28;20172;-75
2022/10/23 13:04:53;;;;;;;5.30;5.10;;;25.20;99.90;;;;;;5092833;28;20529;-76